Aircraft
UPR1017 PR-BLA B737-800M
SBCY
Marechal Rondon Airport
SBSP
Congonhas Airport
Pilot:: Alex
Aircraft:: 737 Max 8 Passengers
Alternate: SBGR
Network: poscon
FLIGHT DETAILS
Distance: 718nm Duration 02h 11m
Cruise Speed: Flight Level: 35000
Validation: Pending Validation Type Charter
Flight Fuel
ZFW: 48537
Block Fuel/Initial FOB: 18909
Flight Fuel: 5623
Cargo
Passengers: 165
Cargo: 2600
ROUTE
ROUTE: DCT
REMARKS:
DATE
Date: 26-09-05
Departure Time: 1256
Cargo: 2600
FLIGHT DETAILS
Crashed: No
Validator Comments:
Flight Rating: 95
LANDING ANALYSIS
Landing wind: 330º/8 kt
Landing heading: 170º
Landing VS:: -145 ft/min
Landing IAS:: 115 kt
Landing Force G: 0.9 G
Landing Bank: 3
Landing Pitch: -5
Landing Flaps: 100
Navigation Lights: ON
Landing Lights: ON
Beacon Lights: ON
Strobe Lights: ON
viserfly

ALTITUDE CHART

viserfly

MAIN EVENTS

DATE EVENT IAS ALTITUDE
2026-09-05 12:54:25 FLYacars version 1.3.6 0 584
2026-09-05 12:54:25 Aircraft boarding in progress 0 584
2026-09-05 12:54:25 FLAPS 37% 0 584
2026-09-05 12:54:25 Navigation Lights ON 0 584
2026-09-05 12:54:25 Beacon Lights ON 0 584
2026-09-05 12:54:25 Strobe Lights ON 0 584
2026-09-05 12:54:25 Starting Engine 2 0 584
2026-09-05 12:54:25 Starting Engine 1 0 584
2026-09-05 12:54:31 Landing Lights ON 0 584
2026-09-05 12:54:31 Taxi Lights ON 0 584
2026-09-05 12:55:06 Aircraft taxiing to runway 0 584
2026-09-05 12:56:30 Detected Take-off roll, HDG 356, IAS 134kt, GS 145kt, G-force 1.0g, Pitch -6.0deg, Bank -3.0deg, Wind 240/09kt, Temp 38°C 134 607
2026-09-05 12:56:30 Airborne 134 607
2026-09-05 12:56:43 Gear UP, IAS 157kt, GS 167kt, ALT 208ft AGL 157 815
2026-09-05 12:57:20 FLAPS 25% 180kt, ALT 2492ft 180 2492
2026-09-05 12:58:08 FLAPS 12% 194kt, ALT 3833ft 194 3833
2026-09-05 12:58:18 FLAPS 0% 205kt, ALT 4003ft 205 4003
2026-09-05 13:00:18 Taxi Lights OFF 236 9571
2026-09-05 13:00:19 Landing Lights OFF 236 9620
2026-09-05 13:16:02 Aircraft on Top Of Climb at 36418ft, IAS 208kt, GS 381kt, HDG 162deg, TAT -43deg, WIND 288/11kt 208 36418
2026-09-05 14:52:14 Aircraft on Top Of Descent at 34495ft, IAS 237kt, GS 498kt, HDG 76deg, TAT -39deg, WIND 265/92kt 237 34495
2026-09-05 14:58:43 Landing Lights ON 244 10114
2026-09-05 14:58:44 Taxi Lights ON 243 10087
2026-09-05 15:01:42 Stall flag 171 4839
2026-09-05 15:05:07 FLAPS 12% 210kt, ALT 4902ft 210 4902
2026-09-05 15:05:07 FLAPS 25% 210kt, ALT 4904ft 210 4904
2026-09-05 15:05:08 FLAPS 37% 209kt, ALT 4914ft 209 4914
2026-09-05 15:06:36 Gear DOWN, IAS 187kt, GS 202kt, ALT 2240ft AGL 187 4864
2026-09-05 15:07:04 FLAPS 50% 191kt, ALT 4162ft 191 4162
2026-09-05 15:07:04 FLAPS 62% 191kt, ALT 4150ft 191 4150
2026-09-05 15:07:04 FLAPS 75% 191kt, ALT 4144ft 191 4144
2026-09-05 15:07:19 FLAPS 87% 151kt, ALT 3995ft 151 3995
2026-09-05 15:07:19 FLAPS 100% 151kt, ALT 3993ft 151 3993
2026-09-05 15:07:58 Landed at destination with a landing rate of -145fpm, G-force 0.9g, Pitch -5.2deg, Bank 3.0deg, HDG 170deg, IAS 115kt, GS 133kt, Wind 330/08kt, Temp 29°C 115 2623
2026-09-05 15:08:22 FLAPS 87% 24 2641
2026-09-05 15:08:22 FLAPS 75% 23 2641
2026-09-05 15:08:22 FLAPS 62% 24 2641
2026-09-05 15:08:22 FLAPS 50% 23 2641
2026-09-05 15:08:23 FLAPS 37% 23 2641
2026-09-05 15:08:23 FLAPS 25% 23 2641
2026-09-05 15:08:26 Aircraft taxiing to apron 15 2643
2026-09-05 15:09:30 FLAPS 12% 0 2645
2026-09-05 15:09:30 FLAPS 0% 0 2645
2026-09-05 15:10:29 Aircraft at gate/stand, ground services are moving into position, disembarkation has begun. Remaining FOB 13286kg FLYacars v1.3.6 3 2644
viserfly

ACARS DATA

DATE IAS GS ALTITUDE FUEL CONSUMED OAT FLIGHT STATUS
2026-09-05 12:54:55 0 0 584 6 38 BOARDING
2026-09-05 12:55:25 0 6 585 13 38 TAXI TO RUNWAY
2026-09-05 12:55:55 0 0 585 19 38 TAXI TO RUNWAY
2026-09-05 12:56:25 119 128 602 51 38 TAKEOFF
2026-09-05 12:56:55 170 171 1293 82 36 TAKEOFF
2026-09-05 12:57:25 183 184 2575 112 31 INITIAL CLIMB
2026-09-05 12:57:55 194 198 3423 140 28 CLIMB
2026-09-05 12:58:25 217 236 4119 169 26 CLIMB
2026-09-05 12:58:55 262 287 4992 196 23 CLIMB
2026-09-05 12:59:25 230 266 7179 223 17 CLIMB
2026-09-05 12:59:55 239 275 8390 249 14 CLIMB
2026-09-05 13:00:25 233 271 9928 275 11 CLIMB
2026-09-05 13:00:55 240 290 11082 302 9 CLIMB
2026-09-05 13:01:25 239 290 11250 320 8 CLIMB
2026-09-05 13:01:55 234 289 12673 347 5 CLIMB
2026-09-05 13:02:25 228 288 14063 374 3 CLIMB
2026-09-05 13:02:55 221 286 15417 401 0 CLIMB
2026-09-05 13:03:25 230 301 16300 428 -1 CLIMB
2026-09-05 13:03:55 236 313 17220 456 -2 CLIMB
2026-09-05 13:04:25 240 324 18142 483 -4 CLIMB
2026-09-05 13:04:55 241 331 19054 509 -5 CLIMB
2026-09-05 13:05:25 241 336 19960 535 -7 CLIMB
2026-09-05 13:05:55 243 341 20863 562 -9 CLIMB
2026-09-05 13:06:25 240 345 21758 588 -11 CLIMB
2026-09-05 13:06:55 240 349 22652 615 -13 CLIMB
2026-09-05 13:07:25 237 353 23549 642 -14 CLIMB
2026-09-05 13:07:55 238 357 24437 670 -16 CLIMB
2026-09-05 13:08:25 237 360 25332 697 -18 CLIMB
2026-09-05 13:08:55 232 362 26222 724 -20 CLIMB
2026-09-05 13:09:25 231 363 27102 752 -21 CLIMB
2026-09-05 13:09:55 227 362 27981 779 -23 CLIMB
2026-09-05 13:10:25 220 359 28848 806 -25 CLIMB
2026-09-05 13:10:55 213 353 29776 833 -26 CLIMB
2026-09-05 13:11:25 206 347 30634 861 -28 CLIMB
2026-09-05 13:11:55 209 358 31005 888 -29 CLIMB
2026-09-05 13:12:25 218 370 31278 915 -29 CLIMB
2026-09-05 13:12:55 225 383 31576 942 -30 CLIMB
2026-09-05 13:13:25 232 395 31878 969 -31 CLIMB
2026-09-05 13:13:55 239 407 32178 996 -32 CLIMB
2026-09-05 13:14:25 246 418 32477 1023 -33 CLIMB
2026-09-05 13:14:55 247 422 32755 1048 -33 CLIMB
2026-09-05 13:15:25 228 403 34402 1091 -38 CLIMB
2026-09-05 13:15:55 207 379 36326 1143 -42 CLIMB
2026-09-05 13:16:25 215 393 36415 1170 -43 ENROUTE
2026-09-05 13:16:55 224 408 36440 1196 -43 ENROUTE
2026-09-05 13:17:25 233 423 36451 1221 -43 ENROUTE
2026-09-05 13:17:55 242 439 36441 1247 -43 ENROUTE
2026-09-05 13:18:25 247 447 36428 1269 -43 ENROUTE
2026-09-05 13:18:55 248 449 36427 1290 -43 ENROUTE
2026-09-05 13:19:25 248 449 36425 1311 -43 ENROUTE
2026-09-05 13:19:55 248 449 36424 1332 -43 ENROUTE
2026-09-05 13:20:25 249 450 36422 1353 -43 ENROUTE
2026-09-05 13:20:55 248 450 36423 1373 -43 ENROUTE
2026-09-05 13:21:25 247 449 36422 1394 -43 ENROUTE
2026-09-05 13:21:55 248 449 36420 1414 -43 ENROUTE
2026-09-05 13:22:25 248 449 36419 1435 -43 ENROUTE
2026-09-05 13:22:55 248 449 36419 1455 -43 ENROUTE
2026-09-05 13:23:25 248 449 36420 1476 -43 ENROUTE
2026-09-05 13:23:55 248 449 36419 1496 -43 ENROUTE
2026-09-05 13:24:25 248 449 36421 1517 -43 ENROUTE
2026-09-05 13:24:55 247 450 36412 1538 -43 ENROUTE
2026-09-05 13:25:25 248 451 36412 1558 -43 ENROUTE
2026-09-05 13:25:55 247 450 36415 1579 -43 ENROUTE
2026-09-05 13:26:25 248 450 36418 1600 -43 ENROUTE
2026-09-05 13:26:55 248 451 36419 1620 -43 ENROUTE
2026-09-05 13:27:25 248 451 36420 1641 -43 ENROUTE
2026-09-05 13:27:55 247 451 36414 1662 -43 ENROUTE
2026-09-05 13:28:25 248 452 36407 1682 -43 ENROUTE
2026-09-05 13:28:55 248 452 36409 1703 -43 ENROUTE
2026-09-05 13:29:25 248 452 36409 1724 -43 ENROUTE
2026-09-05 13:29:55 248 453 36409 1744 -43 ENROUTE
2026-09-05 13:30:25 248 453 36410 1765 -43 ENROUTE
2026-09-05 13:30:55 248 452 36411 1785 -43 ENROUTE
2026-09-05 13:31:25 248 453 36399 1806 -43 ENROUTE
2026-09-05 13:31:55 248 454 36399 1827 -43 ENROUTE
2026-09-05 13:32:25 248 454 36400 1848 -43 ENROUTE
2026-09-05 13:32:55 248 454 36400 1868 -43 ENROUTE
2026-09-05 13:33:25 248 454 36401 1889 -43 ENROUTE
2026-09-05 13:33:55 248 454 36402 1909 -43 ENROUTE
2026-09-05 13:34:25 248 455 36401 1930 -43 ENROUTE
2026-09-05 13:34:55 248 455 36402 1951 -43 ENROUTE
2026-09-05 13:35:25 248 455 36403 1971 -43 ENROUTE
2026-09-05 13:35:55 248 455 36403 1992 -43 ENROUTE
2026-09-05 13:36:25 248 456 36404 2013 -43 ENROUTE
2026-09-05 13:36:55 248 456 36401 2033 -43 ENROUTE
2026-09-05 13:37:25 248 456 36402 2054 -43 ENROUTE
2026-09-05 13:37:55 248 456 36402 2074 -43 ENROUTE
2026-09-05 13:38:25 248 456 36403 2095 -43 ENROUTE
2026-09-05 13:38:55 248 456 36403 2116 -43 ENROUTE
2026-09-05 13:39:25 248 452 36401 2136 -43 ENROUTE
2026-09-05 13:39:55 248 452 36392 2156 -43 ENROUTE
2026-09-05 13:40:25 247 451 36398 2177 -43 ENROUTE
2026-09-05 13:40:55 248 451 36399 2198 -43 ENROUTE
2026-09-05 13:41:25 247 451 36401 2218 -43 ENROUTE
2026-09-05 13:41:55 248 451 36401 2239 -43 ENROUTE
2026-09-05 13:42:25 248 451 36396 2259 -43 ENROUTE
2026-09-05 13:42:55 248 451 36399 2280 -43 ENROUTE
2026-09-05 13:43:25 248 451 36398 2300 -43 ENROUTE
2026-09-05 13:43:55 248 452 36398 2321 -43 ENROUTE
2026-09-05 13:44:25 248 452 36398 2342 -43 ENROUTE
2026-09-05 13:44:55 248 452 36390 2362 -43 ENROUTE
2026-09-05 13:45:25 248 452 36390 2383 -43 ENROUTE
2026-09-05 13:45:55 248 452 36391 2403 -43 ENROUTE
2026-09-05 13:46:25 248 452 36392 2424 -43 ENROUTE
2026-09-05 13:46:55 248 452 36390 2444 -43 ENROUTE
2026-09-05 13:47:25 248 453 36382 2465 -43 ENROUTE
2026-09-05 13:47:55 248 453 36382 2485 -43 ENROUTE
2026-09-05 13:48:25 248 453 36383 2506 -43 ENROUTE
2026-09-05 13:48:55 248 453 36376 2527 -43 ENROUTE
2026-09-05 13:49:25 248 454 36372 2547 -43 ENROUTE
2026-09-05 13:49:55 248 454 36372 2568 -43 ENROUTE
2026-09-05 13:50:25 248 454 36372 2588 -43 ENROUTE
2026-09-05 13:50:55 248 454 36373 2609 -43 ENROUTE
2026-09-05 13:51:25 248 454 36373 2630 -43 ENROUTE
2026-09-05 13:51:55 248 455 36367 2650 -43 ENROUTE
2026-09-05 13:52:25 248 455 36366 2671 -43 ENROUTE
2026-09-05 13:52:55 248 455 36368 2692 -43 ENROUTE
2026-09-05 13:53:25 248 455 36368 2712 -43 ENROUTE
2026-09-05 13:53:55 248 456 36352 2733 -43 ENROUTE
2026-09-05 13:54:25 248 457 36355 2753 -43 ENROUTE
2026-09-05 13:54:55 248 457 36357 2774 -43 ENROUTE
2026-09-05 13:55:25 248 457 36358 2795 -43 ENROUTE
2026-09-05 13:55:55 248 457 36358 2815 -43 ENROUTE
2026-09-05 13:56:25 248 458 36343 2836 -43 ENROUTE
2026-09-05 13:56:55 248 459 36348 2856 -43 ENROUTE
2026-09-05 13:57:25 248 459 36344 2877 -43 ENROUTE
2026-09-05 13:57:55 248 460 36347 2898 -43 ENROUTE
2026-09-05 13:58:25 247 460 36328 2918 -43 ENROUTE
2026-09-05 13:58:55 248 461 36331 2939 -43 ENROUTE
2026-09-05 13:59:25 248 461 36334 2960 -43 ENROUTE
2026-09-05 13:59:55 249 462 36335 2981 -43 ENROUTE
2026-09-05 14:00:25 249 462 36333 3001 -43 ENROUTE
2026-09-05 14:00:55 249 462 36332 3022 -43 ENROUTE
2026-09-05 14:01:25 249 462 36334 3042 -43 ENROUTE
2026-09-05 14:01:55 249 462 36333 3063 -43 ENROUTE
2026-09-05 14:02:25 249 462 36334 3084 -43 ENROUTE
2026-09-05 14:02:55 248 463 36315 3104 -43 ENROUTE
2026-09-05 14:03:25 248 463 36315 3125 -43 ENROUTE
2026-09-05 14:03:55 249 464 36316 3145 -43 ENROUTE
2026-09-05 14:04:25 249 464 36317 3166 -43 ENROUTE
2026-09-05 14:04:55 248 464 36319 3187 -43 ENROUTE
2026-09-05 14:05:25 248 465 36305 3207 -43 ENROUTE
2026-09-05 14:05:55 249 465 36306 3228 -43 ENROUTE
2026-09-05 14:06:25 249 465 36307 3249 -43 ENROUTE
2026-09-05 14:06:55 249 465 36307 3269 -43 ENROUTE
2026-09-05 14:07:25 248 466 36293 3290 -43 ENROUTE
2026-09-05 14:07:55 249 466 36295 3310 -43 ENROUTE
2026-09-05 14:08:25 249 467 36296 3331 -43 ENROUTE
2026-09-05 14:08:55 249 467 36297 3352 -43 ENROUTE
2026-09-05 14:09:25 248 467 36296 3373 -43 ENROUTE
2026-09-05 14:09:55 249 468 36296 3393 -43 ENROUTE
2026-09-05 14:10:25 249 468 36298 3414 -43 ENROUTE
2026-09-05 14:10:55 249 468 36295 3435 -43 ENROUTE
2026-09-05 14:11:25 248 468 36288 3455 -43 ENROUTE
2026-09-05 14:11:55 248 469 36281 3476 -43 ENROUTE
2026-09-05 14:12:25 249 469 36282 3497 -43 ENROUTE
2026-09-05 14:12:55 249 469 36283 3517 -43 ENROUTE
2026-09-05 14:13:25 248 469 36284 3538 -43 ENROUTE
2026-09-05 14:13:55 247 468 36266 3558 -43 ENROUTE
2026-09-05 14:14:25 247 468 36264 3579 -43 ENROUTE
2026-09-05 14:14:55 248 468 36264 3599 -43 ENROUTE
2026-09-05 14:15:25 248 468 36264 3620 -43 ENROUTE
2026-09-05 14:15:55 247 469 36258 3640 -43 ENROUTE
2026-09-05 14:16:25 247 469 36258 3661 -43 ENROUTE
2026-09-05 14:16:55 248 470 36259 3682 -43 ENROUTE
2026-09-05 14:17:25 248 470 36261 3702 -43 ENROUTE
2026-09-05 14:17:55 247 471 36242 3723 -43 ENROUTE
2026-09-05 14:18:25 248 471 36243 3744 -43 ENROUTE
2026-09-05 14:18:55 248 470 36244 3764 -43 ENROUTE
2026-09-05 14:19:25 248 471 36244 3785 -43 ENROUTE
2026-09-05 14:19:55 248 471 36234 3805 -43 ENROUTE
2026-09-05 14:20:25 248 471 36234 3826 -43 ENROUTE
2026-09-05 14:20:55 248 472 36236 3846 -43 ENROUTE
2026-09-05 14:21:25 248 472 36236 3867 -43 ENROUTE
2026-09-05 14:21:55 248 472 36237 3887 -43 ENROUTE
2026-09-05 14:22:25 248 471 36239 3908 -43 ENROUTE
2026-09-05 14:22:55 248 471 36237 3929 -43 ENROUTE
2026-09-05 14:23:25 248 472 36240 3949 -43 ENROUTE
2026-09-05 14:23:55 248 472 36220 3970 -43 ENROUTE
2026-09-05 14:24:25 248 472 36221 3990 -43 ENROUTE
2026-09-05 14:24:55 248 472 36221 4011 -43 ENROUTE
2026-09-05 14:25:25 248 472 36221 4031 -43 ENROUTE
2026-09-05 14:25:55 248 474 36215 4052 -43 ENROUTE
2026-09-05 14:26:25 248 474 36216 4073 -43 ENROUTE
2026-09-05 14:26:55 248 474 36216 4093 -43 ENROUTE
2026-09-05 14:27:25 248 464 36239 4114 -43 ENROUTE
2026-09-05 14:27:55 248 465 36198 4135 -43 ENROUTE
2026-09-05 14:28:25 248 466 36198 4155 -43 ENROUTE
2026-09-05 14:28:55 248 465 36202 4176 -43 ENROUTE
2026-09-05 14:29:25 248 466 36181 4197 -43 ENROUTE
2026-09-05 14:29:55 248 465 36186 4217 -43 ENROUTE
2026-09-05 14:30:25 248 466 36188 4238 -43 ENROUTE
2026-09-05 14:30:55 249 466 36187 4258 -43 ENROUTE
2026-09-05 14:31:25 248 466 36168 4278 -43 ENROUTE
2026-09-05 14:31:55 248 466 36169 4299 -43 ENROUTE
2026-09-05 14:32:25 248 465 36170 4319 -43 ENROUTE
2026-09-05 14:32:55 247 464 36166 4339 -43 ENROUTE
2026-09-05 14:33:25 247 465 36156 4360 -43 ENROUTE
2026-09-05 14:33:55 247 465 36155 4380 -43 ENROUTE
2026-09-05 14:34:25 248 465 36157 4401 -43 ENROUTE
2026-09-05 14:34:55 248 465 36137 4421 -43 ENROUTE
2026-09-05 14:35:25 247 466 36137 4442 -43 ENROUTE
2026-09-05 14:35:55 248 466 36138 4462 -43 ENROUTE
2026-09-05 14:36:25 247 466 36137 4482 -43 ENROUTE
2026-09-05 14:36:55 247 467 36130 4503 -43 ENROUTE
2026-09-05 14:37:25 248 467 36123 4523 -43 ENROUTE
2026-09-05 14:37:55 248 466 36120 4543 -43 ENROUTE
2026-09-05 14:38:25 247 468 36100 4564 -43 ENROUTE
2026-09-05 14:38:55 247 469 36100 4585 -43 ENROUTE
2026-09-05 14:39:25 247 469 36101 4605 -43 ENROUTE
2026-09-05 14:39:55 248 468 36103 4626 -43 ENROUTE
2026-09-05 14:40:25 247 467 36102 4646 -43 ENROUTE
2026-09-05 14:40:55 248 467 36103 4667 -43 ENROUTE
2026-09-05 14:41:25 247 467 36102 4687 -43 ENROUTE
2026-09-05 14:41:55 247 468 36086 4708 -43 ENROUTE
2026-09-05 14:42:25 248 468 36086 4728 -43 ENROUTE
2026-09-05 14:42:55 247 468 36086 4749 -43 ENROUTE
2026-09-05 14:43:25 247 469 36062 4769 -43 ENROUTE
2026-09-05 14:43:55 247 469 36062 4790 -43 ENROUTE
2026-09-05 14:44:25 248 470 36063 4811 -43 ENROUTE
2026-09-05 14:44:55 248 470 36063 4831 -43 ENROUTE
2026-09-05 14:45:25 248 470 36032 4852 -43 ENROUTE
2026-09-05 14:45:55 248 470 36033 4872 -43 ENROUTE
2026-09-05 14:46:25 248 470 36034 4893 -43 ENROUTE
2026-09-05 14:46:55 247 471 36021 4914 -43 ENROUTE
2026-09-05 14:47:25 248 470 36022 4934 -43 ENROUTE
2026-09-05 14:47:55 248 470 36023 4954 -43 ENROUTE
2026-09-05 14:48:25 247 472 36001 4975 -43 ENROUTE
2026-09-05 14:48:55 248 473 36002 4996 -43 ENROUTE
2026-09-05 14:49:25 248 473 36002 5017 -43 ENROUTE
2026-09-05 14:49:55 247 472 36004 5037 -43 ENROUTE
2026-09-05 14:50:25 248 474 35987 5058 -43 ENROUTE
2026-09-05 14:50:55 248 474 35988 5079 -43 ENROUTE
2026-09-05 14:51:25 234 470 36017 5087 -43 CLIMB
2026-09-05 14:51:55 232 496 35276 5091 -41 DESCENT
2026-09-05 14:52:25 239 491 34061 5096 -38 DESCENT
2026-09-05 14:52:55 244 442 32885 5100 -35 DESCENT
2026-09-05 14:53:25 251 395 31634 5105 -31 DESCENT
2026-09-05 14:53:55 261 390 30252 5110 -28 DESCENT
2026-09-05 14:54:25 267 385 28808 5115 -27 DESCENT
2026-09-05 14:54:55 234 320 25819 5124 -22 DESCENT
2026-09-05 14:55:25 218 285 23084 5133 -18 DESCENT
2026-09-05 14:55:55 239 302 20593 5143 -13 DESCENT
2026-09-05 14:56:25 265 327 18166 5152 -9 DESCENT
2026-09-05 14:56:55 235 276 15447 5162 -3 DESCENT
2026-09-05 14:57:25 243 279 13977 5171 -1 DESCENT
2026-09-05 14:57:55 248 281 12515 5181 1 DESCENT
2026-09-05 14:58:25 239 267 10968 5191 5 DESCENT
2026-09-05 14:58:55 231 254 10013 5200 7 DESCENT
2026-09-05 14:59:25 239 258 8740 5210 9 DESCENT
2026-09-05 14:59:55 241 257 7552 5220 12 DESCENT
2026-09-05 15:00:25 234 252 6542 5231 15 DESCENT
2026-09-05 15:00:55 233 250 5525 5241 17 DESCENT
2026-09-05 15:01:25 198 214 4876 5260 18 ENROUTE
2026-09-05 15:01:55 266 287 4952 5312 19 ENROUTE
2026-09-05 15:02:25 229 246 4890 5324 19 ENROUTE
2026-09-05 15:02:55 206 216 4881 5338 19 ENROUTE
2026-09-05 15:03:25 193 206 4881 5359 19 ENROUTE
2026-09-05 15:03:55 189 204 4886 5383 19 ENROUTE
2026-09-05 15:04:25 195 206 4901 5408 19 ENROUTE
2026-09-05 15:04:55 208 218 4907 5438 19 ENROUTE
2026-09-05 15:05:25 183 186 4890 5468 20 DESCENT
2026-09-05 15:05:55 162 168 4228 5499 22 APPROACH
2026-09-05 15:06:25 164 177 4366 5537 21 APPROACH
2026-09-05 15:06:55 185 197 4759 5577 20 APPROACH
2026-09-05 15:07:25 150 159 3781 5582 19 APPROACH
2026-09-05 15:07:55 119 141 2625 5589 29 ON FINAL
2026-09-05 15:08:25 17 28 2642 5599 29 TAXI TO APRON
2026-09-05 15:08:55 0 0 2645 5605 29 TAXI TO APRON
2026-09-05 15:09:25 0 0 2645 5609 29 TAXI TO APRON
2026-09-05 15:09:55 5 15 2646 5620 29 TAXI TO APRON
2026-09-05 15:10:25 3 0 2644 5623 29 TAXI TO APRON
  • Join our VA!

    It has been 11 years of great learning, friendships, and stories.

  • Sign up now!